createdAt,value
2017-08-22T00:00:24.921Z,0
2017-08-22T00:01:26.424Z,0
2017-08-22T00:02:27.803Z,0
2017-08-22T00:03:29.314Z,0
2017-08-22T00:04:30.693Z,0
2017-08-22T00:05:32.186Z,0
2017-08-22T00:06:33.564Z,0
2017-08-22T00:07:35.064Z,0
2017-08-22T00:08:36.440Z,0
2017-08-22T00:09:37.942Z,0
2017-08-22T00:10:39.471Z,0
2017-08-22T00:11:41.134Z,0
2017-08-22T00:12:42.511Z,0
2017-08-22T00:13:44.023Z,0
2017-08-22T00:14:45.400Z,0
2017-08-22T00:15:46.893Z,0
2017-08-22T00:16:48.271Z,0
2017-08-22T00:17:49.775Z,0
2017-08-22T00:18:51.151Z,0
2017-08-22T00:19:52.656Z,0
2017-08-22T00:20:54.035Z,0
2017-08-22T00:21:55.536Z,0
2017-08-22T00:22:56.937Z,0
2017-08-22T00:23:58.416Z,0
2017-08-22T00:24:59.794Z,0
2017-08-22T00:26:01.303Z,0
2017-08-22T00:27:02.673Z,0
2017-08-22T00:28:04.176Z,0
2017-08-22T00:29:05.553Z,0
2017-08-22T00:30:07.058Z,0
2017-08-22T00:31:08.436Z,0
2017-08-22T00:32:09.938Z,0
2017-08-22T00:33:11.320Z,0
2017-08-22T00:34:12.817Z,0
2017-08-22T00:35:14.193Z,0
2017-08-22T00:36:15.697Z,0
2017-08-22T00:37:17.073Z,0
2017-08-22T00:38:18.578Z,0
2017-08-22T00:39:19.960Z,0
2017-08-22T00:40:21.457Z,0
2017-08-22T00:41:22.835Z,0
2017-08-22T00:42:24.340Z,0
2017-08-22T00:43:25.715Z,0
2017-08-22T00:44:27.218Z,0
2017-08-22T00:45:28.597Z,0
2017-08-22T00:46:30.134Z,0
2017-08-22T00:47:31.515Z,0
2017-08-22T00:48:32.981Z,0
2017-08-22T00:49:34.354Z,0
2017-08-22T00:50:35.861Z,0
2017-08-22T00:51:37.239Z,0
2017-08-22T00:52:38.743Z,0
2017-08-22T00:53:40.126Z,0
2017-08-22T00:54:41.622Z,0
2017-08-22T00:55:43.000Z,0
2017-08-22T00:56:44.386Z,0
2017-08-22T00:57:45.762Z,0
2017-08-22T00:58:47.391Z,0
2017-08-22T00:59:48.765Z,0
2017-08-22T01:00:50.266Z,0
2017-08-22T01:01:51.648Z,0
2017-08-22T01:02:53.143Z,0
2017-08-22T01:03:54.518Z,0
2017-08-22T01:04:56.024Z,0
2017-08-22T01:05:57.415Z,0
2017-08-22T01:06:58.906Z,0
2017-08-22T01:08:00.289Z,0
2017-08-22T01:09:01.786Z,0
2017-08-22T01:10:03.163Z,0
2017-08-22T01:11:04.666Z,0
2017-08-22T01:12:06.067Z,0
2017-08-22T01:13:07.548Z,0
2017-08-22T01:14:08.926Z,0
2017-08-22T01:15:10.426Z,0
2017-08-22T01:16:11.805Z,0
2017-08-22T01:17:13.306Z,0
2017-08-22T01:18:14.684Z,0
2017-08-22T01:19:16.190Z,0
2017-08-22T01:20:17.565Z,0
2017-08-22T01:21:19.065Z,0
2017-08-22T01:22:20.446Z,0
2017-08-22T01:23:21.956Z,0
2017-08-22T01:24:23.333Z,0
2017-08-22T01:25:24.829Z,0
2017-08-22T01:26:26.207Z,0
2017-08-22T01:27:27.709Z,0
2017-08-22T01:28:29.085Z,0
2017-08-22T01:29:30.592Z,0
2017-08-22T01:30:31.971Z,0
2017-08-22T01:31:33.472Z,0
2017-08-22T01:32:34.853Z,0
2017-08-22T01:33:36.351Z,0
2017-08-22T01:34:37.728Z,0
2017-08-22T01:35:39.230Z,0
2017-08-22T01:36:40.609Z,0
2017-08-22T01:37:42.111Z,0
2017-08-22T01:38:43.486Z,0
2017-08-22T01:39:44.992Z,0
2017-08-22T01:40:46.368Z,0
2017-08-22T01:41:47.875Z,0
2017-08-22T01:42:49.258Z,0
2017-08-22T01:43:50.753Z,0
2017-08-22T01:44:52.129Z,0
2017-08-22T01:45:53.633Z,0
2017-08-22T01:46:55.029Z,0
2017-08-22T01:47:56.512Z,0
2017-08-22T01:48:57.890Z,0
2017-08-22T01:49:59.394Z,0
2017-08-22T01:51:00.770Z,0
2017-08-22T01:52:02.275Z,0
2017-08-22T01:53:03.651Z,0
2017-08-22T01:54:05.157Z,0
2017-08-22T01:55:06.534Z,0
2017-08-22T01:56:08.037Z,0
2017-08-22T01:57:09.414Z,0
2017-08-22T01:58:10.924Z,0
2017-08-22T01:59:12.301Z,0
2017-08-22T02:00:13.798Z,0
2017-08-22T02:01:15.181Z,0
2017-08-22T02:02:16.671Z,0
2017-08-22T02:03:18.051Z,0
2017-08-22T02:04:19.551Z,0
2017-08-22T02:05:20.936Z,0
2017-08-22T02:06:22.436Z,0
2017-08-22T02:07:23.813Z,0
2017-08-22T02:08:25.317Z,0
2017-08-22T02:09:26.693Z,0
2017-08-22T02:10:28.200Z,0
2017-08-22T02:11:29.580Z,0
2017-08-22T02:12:31.085Z,0
2017-08-22T02:13:32.462Z,0
2017-08-22T02:14:33.958Z,0
2017-08-22T02:15:35.339Z,0
2017-08-22T02:16:36.840Z,0
2017-08-22T02:17:38.221Z,0
2017-08-22T02:18:39.719Z,0
2017-08-22T02:19:41.096Z,0
2017-08-22T02:20:42.598Z,0
2017-08-22T02:21:43.972Z,0
2017-08-22T02:22:45.483Z,0
2017-08-22T02:23:46.858Z,0
2017-08-22T02:24:48.361Z,0
2017-08-22T02:25:49.739Z,0
2017-08-22T02:26:51.240Z,0
2017-08-22T02:27:52.621Z,0
2017-08-22T02:28:54.122Z,0
2017-08-22T02:29:55.496Z,0
2017-08-22T02:30:57.002Z,0
2017-08-22T02:31:58.380Z,0
2017-08-22T02:32:59.886Z,0
2017-08-22T02:34:01.257Z,0
2017-08-22T02:35:02.765Z,0
2017-08-22T02:36:04.141Z,0
2017-08-22T02:37:05.643Z,0
2017-08-22T02:38:07.019Z,0
2017-08-22T02:39:08.527Z,0
2017-08-22T02:40:09.916Z,0
2017-08-22T02:41:11.412Z,0
2017-08-22T02:42:12.792Z,0
2017-08-22T02:43:14.284Z,0
2017-08-22T02:44:15.660Z,0
2017-08-22T02:45:17.173Z,0
2017-08-22T02:46:18.541Z,0
2017-08-22T02:47:20.050Z,0
2017-08-22T02:48:21.428Z,0
2017-08-22T02:49:22.926Z,0
2017-08-22T02:50:24.303Z,0
2017-08-22T02:51:25.805Z,0
2017-08-22T02:52:27.187Z,0
2017-08-22T02:53:28.690Z,0
2017-08-22T02:54:30.069Z,0
2017-08-22T02:55:31.568Z,0
2017-08-22T02:56:32.940Z,0
2017-08-22T02:57:34.446Z,0
2017-08-22T02:58:35.823Z,0
2017-08-22T02:59:37.328Z,0
2017-08-22T03:00:38.705Z,0
2017-08-22T03:01:40.208Z,0
2017-08-22T03:02:41.595Z,0
2017-08-22T03:03:43.088Z,0
2017-08-22T03:04:44.464Z,0
2017-08-22T03:05:45.973Z,0
2017-08-22T03:06:47.353Z,0
2017-08-22T03:07:48.849Z,0
2017-08-22T03:08:50.225Z,0
2017-08-22T03:09:51.728Z,0
2017-08-22T03:10:53.110Z,0
2017-08-22T03:11:54.607Z,0
2017-08-22T03:12:55.986Z,0
2017-08-22T03:13:57.490Z,0
2017-08-22T03:14:58.864Z,0
2017-08-22T03:16:00.370Z,0
2017-08-22T03:17:01.749Z,0
2017-08-22T03:18:03.251Z,0
2017-08-22T03:19:04.626Z,0
2017-08-22T03:20:06.133Z,0
2017-08-22T03:21:07.511Z,0
2017-08-22T03:22:09.010Z,0
2017-08-22T03:23:10.390Z,0
2017-08-22T03:24:11.894Z,0
2017-08-22T03:25:13.274Z,0
2017-08-22T03:26:14.770Z,0
2017-08-22T03:27:16.147Z,0
2017-08-22T03:28:17.651Z,0
2017-08-22T03:29:19.032Z,0
2017-08-22T03:30:20.535Z,0
2017-08-22T03:31:21.914Z,0
2017-08-22T03:32:23.415Z,0
2017-08-22T03:33:24.804Z,0
2017-08-22T03:34:26.294Z,0
2017-08-22T03:35:27.676Z,0
2017-08-22T03:36:29.204Z,0
2017-08-22T03:37:30.583Z,0
2017-08-22T03:38:32.057Z,0
2017-08-22T03:39:33.438Z,0
2017-08-22T03:40:34.942Z,0
2017-08-22T03:41:36.321Z,0
2017-08-22T03:42:37.836Z,0
2017-08-22T03:43:39.213Z,0
2017-08-22T03:44:40.719Z,0
2017-08-22T03:45:42.099Z,0
2017-08-22T03:46:43.577Z,0
2017-08-22T03:47:44.955Z,0
2017-08-22T03:48:46.459Z,0
2017-08-22T03:49:47.840Z,0
2017-08-22T03:50:49.344Z,0
2017-08-22T03:51:50.737Z,0
2017-08-22T03:52:52.217Z,0
2017-08-22T03:53:53.599Z,0
2017-08-22T03:54:55.100Z,0
2017-08-22T03:55:56.473Z,0
2017-08-22T03:56:57.986Z,0
2017-08-22T03:57:59.358Z,0
2017-08-22T03:59:00.862Z,0
2017-08-22T04:00:02.253Z,0
2017-08-22T04:01:03.743Z,4
2017-08-22T04:02:05.117Z,4
2017-08-22T04:03:06.618Z,4
2017-08-22T04:04:08.003Z,4
2017-08-22T04:05:09.500Z,4
2017-08-22T04:06:10.885Z,4
2017-08-22T04:07:12.385Z,8
2017-08-22T04:08:13.762Z,4
2017-08-22T04:09:15.266Z,8
2017-08-22T04:10:16.647Z,8
2017-08-22T04:11:18.144Z,12
2017-08-22T04:12:19.522Z,16
2017-08-22T04:13:21.024Z,16
2017-08-22T04:14:22.405Z,20
2017-08-22T04:15:23.904Z,28
2017-08-22T04:16:25.295Z,36
2017-08-22T04:17:26.795Z,44
2017-08-22T04:18:28.172Z,52
2017-08-22T04:19:29.666Z,60
2017-08-22T04:20:31.047Z,56
2017-08-22T04:21:32.547Z,64
2017-08-22T04:22:33.932Z,68
2017-08-22T04:23:35.427Z,76
2017-08-22T04:24:36.809Z,76
2017-08-22T04:25:38.307Z,88
2017-08-22T04:26:39.686Z,92
2017-08-22T04:27:41.188Z,104
2017-08-22T04:28:42.573Z,108
2017-08-22T04:29:44.068Z,116
2017-08-22T04:30:45.459Z,128
2017-08-22T04:31:46.950Z,140
2017-08-22T04:32:48.333Z,152
2017-08-22T04:33:49.826Z,168
2017-08-22T04:34:51.235Z,188
2017-08-22T04:35:52.707Z,212
2017-08-22T04:36:54.089Z,240
2017-08-22T04:37:55.593Z,276
2017-08-22T04:38:56.971Z,312
2017-08-22T04:39:58.470Z,348
2017-08-22T04:40:59.849Z,388
2017-08-22T04:42:01.354Z,432
2017-08-22T04:43:02.731Z,476
2017-08-22T04:44:04.232Z,520
2017-08-22T04:45:05.612Z,556
2017-08-22T04:46:07.111Z,600
2017-08-22T04:47:08.517Z,640
2017-08-22T04:48:09.996Z,680
2017-08-22T04:49:11.382Z,720
2017-08-22T04:50:12.875Z,764
2017-08-22T04:51:14.260Z,808
2017-08-22T04:52:15.750Z,848
2017-08-22T04:53:17.137Z,900
2017-08-22T04:54:19.035Z,956
2017-08-22T04:55:20.416Z,1016
2017-08-22T04:56:21.820Z,1076
2017-08-22T04:57:23.209Z,1140
2017-08-22T04:58:24.702Z,1216
2017-08-22T04:59:26.084Z,1288
2017-08-22T05:00:27.586Z,1360
2017-08-22T05:01:28.970Z,1420
2017-08-22T05:02:30.487Z,1476
2017-08-22T05:03:31.866Z,1524
2017-08-22T05:04:33.349Z,1580
2017-08-22T05:05:34.729Z,1640
2017-08-22T05:06:36.222Z,1700
2017-08-22T05:07:37.625Z,1764
2017-08-22T05:08:39.103Z,1832
2017-08-22T05:09:40.483Z,1912
2017-08-22T05:10:41.981Z,2004
2017-08-22T05:11:43.367Z,2100
2017-08-22T05:12:44.864Z,2204
2017-08-22T05:13:46.244Z,2308
2017-08-22T05:14:47.745Z,2408
2017-08-22T05:15:49.127Z,2504
2017-08-22T05:16:50.626Z,2612
2017-08-22T05:17:52.009Z,2724
2017-08-22T05:18:53.507Z,2852
2017-08-22T05:19:54.903Z,2984
2017-08-22T05:20:56.389Z,3140
2017-08-22T05:21:57.764Z,3312
2017-08-22T05:22:59.381Z,3488
2017-08-22T05:24:00.750Z,3660
2017-08-22T05:25:02.166Z,3808
2017-08-22T05:26:03.571Z,3944
2017-08-22T05:27:05.042Z,4080
2017-08-22T05:28:06.421Z,4200
2017-08-22T05:29:07.932Z,4308
2017-08-22T05:30:09.290Z,4416
2017-08-22T05:31:10.796Z,4532
2017-08-22T05:32:12.181Z,4672
2017-08-22T05:33:13.669Z,4828
2017-08-22T05:34:15.053Z,5028
2017-08-22T05:35:16.559Z,5252
2017-08-22T05:36:17.944Z,5508
2017-08-22T05:37:19.430Z,5788
2017-08-22T05:38:20.810Z,6044
2017-08-22T05:39:22.312Z,6264
2017-08-22T05:40:23.695Z,6440
2017-08-22T05:41:25.194Z,6596
2017-08-22T05:42:26.590Z,6724
2017-08-22T05:43:28.152Z,6852
2017-08-22T05:44:29.533Z,6984
2017-08-22T05:45:30.948Z,7120
2017-08-22T05:46:32.333Z,7244
2017-08-22T05:47:33.842Z,7344
2017-08-22T05:48:35.220Z,7452
2017-08-22T05:49:36.711Z,7588
2017-08-22T05:50:38.099Z,7700
2017-08-22T05:51:39.597Z,7776
2017-08-22T05:52:40.992Z,7800
2017-08-22T05:53:42.385Z,7812
2017-08-22T05:54:43.768Z,7864
2017-08-22T05:55:45.159Z,7960
2017-08-22T05:56:46.555Z,8056
2017-08-22T05:57:47.987Z,8488
2017-08-22T05:58:49.345Z,8448
2017-08-22T05:59:50.741Z,8320
2017-08-22T06:00:52.125Z,8432
2017-08-22T06:01:53.516Z,8604
2017-08-22T06:02:54.901Z,8872
2017-08-22T06:03:56.297Z,9164
2017-08-22T06:04:57.677Z,9568
2017-08-22T06:05:59.072Z,11828
2017-08-22T06:07:00.452Z,10816
2017-08-22T06:08:01.849Z,11176
2017-08-22T06:09:03.234Z,11644
2017-08-22T06:10:04.626Z,10156
2017-08-22T06:11:06.006Z,11008
2017-08-22T06:12:07.393Z,11264
2017-08-22T06:13:08.797Z,11200
2017-08-22T06:14:10.189Z,10536
2017-08-22T06:15:11.583Z,12232
2017-08-22T06:16:12.966Z,12100
2017-08-22T06:17:14.345Z,12496
2017-08-22T06:18:15.731Z,13908
2017-08-22T06:19:17.126Z,15736
2017-08-22T06:20:18.507Z,16384
2017-08-22T06:21:19.896Z,15972
2017-08-22T06:22:21.292Z,14228
2017-08-22T06:23:22.676Z,13616
2017-08-22T06:24:24.071Z,13636
2017-08-22T06:25:25.462Z,13704
2017-08-22T06:26:26.858Z,14064
2017-08-22T06:27:28.233Z,15064
2017-08-22T06:28:29.623Z,15840
2017-08-22T06:29:31.017Z,15984
2017-08-22T06:30:32.406Z,16700
2017-08-22T06:31:33.790Z,18016
2017-08-22T06:32:35.180Z,19680
2017-08-22T06:33:36.563Z,21856
2017-08-22T06:34:37.991Z,23616
2017-08-22T06:35:39.405Z,24928
2017-08-22T06:36:40.795Z,25536
2017-08-22T06:37:42.226Z,25952
2017-08-22T06:38:43.617Z,25856
2017-08-22T06:39:45.003Z,25056
2017-08-22T06:40:46.394Z,24416
2017-08-22T06:41:47.778Z,24512
2017-08-22T06:42:49.173Z,24576
2017-08-22T06:43:50.554Z,23776
2017-08-22T06:44:51.953Z,17824
2017-08-22T06:45:53.362Z,16812
2017-08-22T06:46:54.766Z,15724
2017-08-22T06:47:56.147Z,15552
2017-08-22T06:48:57.544Z,15372
2017-08-22T06:49:58.927Z,15244
2017-08-22T06:51:00.318Z,15184
2017-08-22T06:52:01.711Z,15108
2017-08-22T06:53:03.102Z,14884
2017-08-22T06:54:04.493Z,14620
2017-08-22T06:55:05.892Z,14260
2017-08-22T06:56:07.289Z,13944
2017-08-22T06:57:08.686Z,13888
2017-08-22T06:58:10.173Z,13740
2017-08-22T06:59:11.552Z,13644
2017-08-22T07:00:12.940Z,13664
2017-08-22T07:01:14.335Z,14508
2017-08-22T07:02:15.719Z,14588
2017-08-22T07:03:17.110Z,15304
2017-08-22T07:04:18.494Z,16360
2017-08-22T07:05:19.901Z,16280
2017-08-22T07:06:21.292Z,20256
2017-08-22T07:07:22.690Z,21344
2017-08-22T07:08:24.077Z,26816
2017-08-22T07:09:25.505Z,26976
2017-08-22T07:10:26.908Z,27872
2017-08-22T07:11:28.306Z,27232
2017-08-22T07:12:29.704Z,28448
2017-08-22T07:13:31.111Z,26336
2017-08-22T07:14:32.518Z,25728
2017-08-22T07:15:33.974Z,27648
2017-08-22T07:16:35.421Z,28288
2017-08-22T07:17:36.832Z,29856
2017-08-22T07:18:38.218Z,30624
2017-08-22T07:19:39.612Z,31360
2017-08-22T07:20:40.998Z,31520
2017-08-22T07:21:42.389Z,31712
2017-08-22T07:22:43.787Z,30880
2017-08-22T07:23:45.389Z,31072
2017-08-22T07:24:46.775Z,31488
2017-08-22T07:25:48.172Z,30880
2017-08-22T07:26:49.564Z,31712
2017-08-22T07:27:50.978Z,34272
2017-08-22T07:28:52.391Z,39072
2017-08-22T07:29:53.788Z,40064
2017-08-22T07:30:55.175Z,36960
2017-08-22T07:31:56.576Z,33344
2017-08-22T07:32:58.436Z,22432
2017-08-22T07:33:59.833Z,20736
2017-08-22T07:35:01.223Z,20192
2017-08-22T07:36:02.627Z,20992
2017-08-22T07:37:04.026Z,21856
2017-08-22T07:38:05.418Z,22816
2017-08-22T07:39:06.863Z,24608
2017-08-22T07:40:08.259Z,25728
2017-08-22T07:41:09.655Z,26400
2017-08-22T07:42:11.061Z,27392
2017-08-22T07:43:12.447Z,28480
2017-08-22T07:44:13.844Z,28640
2017-08-22T07:45:15.234Z,28576
2017-08-22T07:46:16.633Z,28320
2017-08-22T07:47:18.015Z,27808
2017-08-22T07:48:19.410Z,28224
2017-08-22T07:49:20.796Z,28672
2017-08-22T07:50:22.205Z,28992
2017-08-22T07:51:23.609Z,28896
2017-08-22T07:52:25.001Z,28704
2017-08-22T07:53:26.388Z,28480
2017-08-22T07:54:27.791Z,28320
2017-08-22T07:55:29.233Z,28256
2017-08-22T07:56:30.616Z,28192
2017-08-22T07:57:32.040Z,28128
2017-08-22T07:58:33.456Z,28000
2017-08-22T07:59:34.981Z,27744
2017-08-22T08:00:36.353Z,27392
2017-08-22T08:01:37.738Z,27168
2017-08-22T08:02:39.145Z,27040
2017-08-22T08:03:40.537Z,26912
2017-08-22T08:04:41.966Z,26848
2017-08-22T08:05:43.351Z,26816
2017-08-22T08:06:44.763Z,26944
2017-08-22T08:07:46.162Z,27232
2017-08-22T08:08:47.558Z,27520
2017-08-22T08:09:48.947Z,27744
2017-08-22T08:10:50.370Z,27904
2017-08-22T08:11:51.767Z,28128
2017-08-22T08:12:53.149Z,28352
2017-08-22T08:13:54.532Z,28704
2017-08-22T08:14:55.937Z,29184
2017-08-22T08:15:57.329Z,29760
2017-08-22T08:16:58.721Z,30528
2017-08-22T08:18:00.121Z,31072
2017-08-22T08:19:01.509Z,31520
2017-08-22T08:20:02.897Z,31808
2017-08-22T08:21:04.287Z,31712
2017-08-22T08:22:05.697Z,31712
2017-08-22T08:23:07.178Z,31840
2017-08-22T08:24:08.612Z,31936
2017-08-22T08:25:10.002Z,32384
2017-08-22T08:26:11.394Z,32224
2017-08-22T08:27:12.975Z,32192
2017-08-22T08:28:14.626Z,32000
2017-08-22T08:29:15.858Z,31680
2017-08-22T08:30:17.259Z,31296
2017-08-22T08:31:18.663Z,30912
2017-08-22T08:32:20.062Z,30720
2017-08-22T08:33:21.505Z,30656
2017-08-22T08:34:22.869Z,30560
2017-08-22T08:35:24.280Z,30368
2017-08-22T08:36:25.677Z,30240
2017-08-22T08:37:27.079Z,30240
2017-08-22T08:38:28.481Z,30496
2017-08-22T08:39:29.878Z,30912
2017-08-22T08:40:31.268Z,31424
2017-08-22T08:41:32.684Z,31808
2017-08-22T08:42:34.073Z,31584
2017-08-22T08:43:35.457Z,31072
2017-08-22T08:44:36.866Z,30944
2017-08-22T08:45:38.264Z,30880
2017-08-22T08:46:39.675Z,31008
2017-08-22T08:47:41.084Z,31264
2017-08-22T08:48:42.469Z,31648
2017-08-22T08:49:43.889Z,31904
2017-08-22T08:50:45.330Z,32000
2017-08-22T08:51:46.723Z,31840
2017-08-22T08:52:48.226Z,31328
2017-08-22T08:53:49.622Z,30912
2017-08-22T08:54:51.015Z,29760
2017-08-22T08:55:52.404Z,28416
2017-08-22T08:56:53.792Z,27392
2017-08-22T08:57:55.182Z,25824
2017-08-22T08:58:56.588Z,37824
2017-08-22T08:59:57.981Z,63648
2017-08-22T09:00:59.369Z,50336
2017-08-22T09:02:00.762Z,55776
2017-08-22T09:03:02.148Z,61152
2017-08-22T09:04:03.548Z,55136
2017-08-22T09:05:04.930Z,64064
2017-08-22T09:06:06.331Z,60064
2017-08-22T09:07:07.722Z,51296
2017-08-22T09:08:09.124Z,60448
2017-08-22T09:09:10.525Z,60288
2017-08-22T09:10:11.922Z,47968
2017-08-22T09:11:13.336Z,66848
2017-08-22T09:12:14.723Z,48704
2017-08-22T09:13:16.137Z,44096
2017-08-22T09:14:17.537Z,64416
2017-08-22T09:15:18.932Z,46272
2017-08-22T09:16:20.334Z,52768
2017-08-22T09:17:21.726Z,48096
2017-08-22T09:18:23.138Z,47584
2017-08-22T09:19:24.513Z,47648
2017-08-22T09:20:25.911Z,47840
2017-08-22T09:21:27.308Z,48544
2017-08-22T09:22:28.724Z,49248
2017-08-22T09:23:30.145Z,49920
2017-08-22T09:24:31.541Z,52544
2017-08-22T09:25:32.934Z,57600
2017-08-22T09:26:34.331Z,70112
2017-08-22T09:27:36.006Z,71776
2017-08-22T09:28:37.376Z,69824
2017-08-22T09:29:38.774Z,62464
2017-08-22T09:30:40.166Z,60384
2017-08-22T09:31:41.556Z,59776
2017-08-22T09:32:42.957Z,61024
2017-08-22T09:33:44.362Z,60928
2017-08-22T09:34:45.764Z,60960
2017-08-22T09:35:47.155Z,58848
2017-08-22T09:36:48.555Z,54208
2017-08-22T09:37:49.950Z,53824
2017-08-22T09:38:51.350Z,64320
2017-08-22T09:39:52.740Z,69184
2017-08-22T09:40:54.140Z,69056
2017-08-22T09:41:55.911Z,65888
2017-08-22T09:42:57.329Z,62528
2017-08-22T09:43:59.399Z,60160
2017-08-22T09:45:00.798Z,61152
2017-08-22T09:46:02.193Z,61920
2017-08-22T09:47:03.595Z,71072
2017-08-22T09:48:04.993Z,66016
2017-08-22T09:49:06.404Z,75008
2017-08-22T09:50:07.800Z,80864
2017-08-22T09:51:09.197Z,76480
2017-08-22T09:52:11.369Z,77440
2017-08-22T09:53:12.767Z,74912
2017-08-22T09:54:14.165Z,70944
2017-08-22T09:55:15.561Z,65184
2017-08-22T09:56:16.964Z,61152
2017-08-22T09:57:18.384Z,61440
2017-08-22T09:58:19.779Z,59360
2017-08-22T09:59:21.191Z,56576
2017-08-22T10:00:22.588Z,54144
2017-08-22T10:01:23.991Z,55808
2017-08-22T10:02:25.380Z,55040
2017-08-22T10:03:26.783Z,57632
2017-08-22T10:04:28.178Z,60960
2017-08-22T10:05:29.577Z,63488
2017-08-22T10:06:31.123Z,71552
2017-08-22T10:07:32.529Z,73184
2017-08-22T10:08:33.918Z,70976
2017-08-22T10:09:35.320Z,92640
2017-08-22T10:10:36.728Z,99584
2017-08-22T10:11:38.111Z,96736
2017-08-22T10:12:39.506Z,100832
2017-08-22T10:13:40.908Z,92064
2017-08-22T10:14:42.298Z,86176
2017-08-22T10:15:43.766Z,81568
2017-08-22T10:16:45.165Z,77856
2017-08-22T10:17:46.569Z,65024
2017-08-22T10:18:47.963Z,70112
2017-08-22T10:19:49.367Z,66816
2017-08-22T10:20:50.783Z,68096
2017-08-22T10:21:52.235Z,58464
2017-08-22T10:22:53.625Z,51328
2017-08-22T10:23:55.031Z,58816
2017-08-22T10:24:56.431Z,60000
2017-08-22T10:25:57.829Z,54432
2017-08-22T10:26:59.221Z,62048
2017-08-22T10:28:00.624Z,65792
2017-08-22T10:29:02.019Z,61472
2017-08-22T10:30:03.411Z,62144
2017-08-22T10:31:04.814Z,63104
2017-08-22T10:32:06.216Z,55616
2017-08-22T10:33:07.614Z,53984
2017-08-22T10:34:09.016Z,41632
2017-08-22T10:35:10.461Z,47360
2017-08-22T10:36:12.233Z,51488
2017-08-22T10:37:13.651Z,56736
2017-08-22T10:38:15.069Z,56736
2017-08-22T10:39:16.701Z,54016
2017-08-22T10:40:18.113Z,53536
2017-08-22T10:41:19.512Z,53024
2017-08-22T10:42:20.926Z,54560
2017-08-22T10:43:22.320Z,52896
2017-08-22T10:44:23.725Z,53632
2017-08-22T10:45:25.149Z,58464
2017-08-22T10:46:28.191Z,61312
2017-08-22T10:47:29.712Z,59936
2017-08-22T10:48:31.116Z,64032
2017-08-22T10:49:32.714Z,65664
2017-08-22T10:50:34.114Z,62496
2017-08-22T10:51:35.512Z,60736
2017-08-22T10:52:36.908Z,53696
2017-08-22T10:53:38.305Z,58176
2017-08-22T10:54:39.702Z,69280
2017-08-22T10:55:41.108Z,58464
2017-08-22T10:56:42.507Z,72448
2017-08-22T10:57:43.897Z,93696
2017-08-22T10:58:45.296Z,90016
2017-08-22T10:59:46.696Z,72832
2017-08-22T11:00:48.086Z,46784
2017-08-22T11:01:49.483Z,72960
2017-08-22T11:02:50.897Z,51296
2017-08-22T11:03:52.295Z,70304
2017-08-22T11:04:53.693Z,88928
2017-08-22T11:05:55.083Z,70144
2017-08-22T11:06:56.579Z,73984
2017-08-22T11:07:57.987Z,43680
2017-08-22T11:08:59.497Z,35104
2017-08-22T11:10:00.899Z,31072
2017-08-22T11:11:02.321Z,37088
2017-08-22T11:12:03.714Z,35680
2017-08-22T11:13:05.549Z,31392
2017-08-22T11:14:06.827Z,65664
2017-08-22T11:15:08.301Z,62752
2017-08-22T11:16:09.697Z,53024
2017-08-22T11:17:11.242Z,38176
2017-08-22T11:18:12.646Z,46880
2017-08-22T11:19:14.158Z,52352
2017-08-22T11:20:15.553Z,50880
2017-08-22T11:21:17.068Z,43488
2017-08-22T11:22:18.464Z,40224
2017-08-22T11:23:19.932Z,39200
2017-08-22T11:24:21.334Z,37856
2017-08-22T11:25:23.828Z,82272
2017-08-22T11:26:25.214Z,86752
2017-08-22T11:27:26.723Z,99680
2017-08-22T11:28:28.118Z,105696
2017-08-22T11:29:29.600Z,110848
2017-08-22T11:30:30.994Z,109728
2017-08-22T11:31:32.621Z,109408
2017-08-22T11:32:34.032Z,112608
2017-08-22T11:33:35.458Z,109856
2017-08-22T11:34:36.849Z,98816
2017-08-22T11:35:38.357Z,90304
2017-08-22T11:36:39.749Z,78560
2017-08-22T11:37:41.222Z,69536
2017-08-22T11:38:42.615Z,68704
2017-08-22T11:39:44.201Z,71648
2017-08-22T11:40:45.703Z,77632
2017-08-22T11:41:47.190Z,88864
2017-08-22T11:42:48.739Z,105568
2017-08-22T11:43:51.848Z,108128
2017-08-22T11:44:53.082Z,83072
2017-08-22T11:45:54.624Z,78816
2017-08-22T11:46:56.028Z,46560
2017-08-22T11:47:57.474Z,63264
2017-08-22T11:48:58.876Z,73344
2017-08-22T11:50:00.355Z,41216
2017-08-22T11:51:01.754Z,42848
2017-08-22T11:52:03.233Z,39456
2017-08-22T11:53:04.633Z,40288
2017-08-22T11:54:06.134Z,45312
2017-08-22T11:55:07.528Z,39872
2017-08-22T11:56:09.003Z,38624
2017-08-22T11:57:10.395Z,36896
2017-08-22T11:58:11.893Z,35040
2017-08-22T11:59:13.284Z,33216
2017-08-22T12:00:14.766Z,31904
2017-08-22T12:01:16.177Z,23936
2017-08-22T12:02:17.652Z,47040
2017-08-22T12:03:19.108Z,97152
2017-08-22T12:04:20.531Z,144928
2017-08-22T12:05:21.926Z,138208
2017-08-22T12:06:23.414Z,148576
2017-08-22T12:07:24.814Z,136800
2017-08-22T12:08:26.305Z,128768
2017-08-22T12:09:28.081Z,131104
2017-08-22T12:10:29.584Z,70368
2017-08-22T12:11:31.070Z,88768
2017-08-22T12:12:32.476Z,116416
2017-08-22T12:13:33.881Z,127520
2017-08-22T12:14:35.351Z,130752
2017-08-22T12:15:36.754Z,113600
2017-08-22T12:16:38.273Z,81344
2017-08-22T12:17:39.684Z,61472
2017-08-22T12:18:41.130Z,70048
2017-08-22T12:19:42.523Z,70784
2017-08-22T12:20:44.009Z,68992
2017-08-22T12:21:45.434Z,53856
2017-08-22T12:22:46.883Z,43008
2017-08-22T12:23:49.029Z,39552
2017-08-22T12:24:51.478Z,55360
2017-08-22T12:25:52.671Z,57888
2017-08-22T12:26:54.800Z,84768
2017-08-22T12:27:56.217Z,52384
2017-08-22T12:28:57.674Z,67008
2017-08-22T12:29:59.074Z,45824
2017-08-22T12:31:00.560Z,57728
2017-08-22T12:32:01.951Z,56640
2017-08-22T12:33:04.026Z,77344
2017-08-22T12:34:05.387Z,31072
2017-08-22T12:35:06.833Z,38272
2017-08-22T12:36:08.232Z,67744
2017-08-22T12:37:11.074Z,68352
2017-08-22T12:38:12.446Z,63840
2017-08-22T12:39:13.932Z,55968
2017-08-22T12:40:15.338Z,48032
2017-08-22T12:41:16.743Z,84000
2017-08-22T12:42:18.134Z,86944
2017-08-22T12:43:19.639Z,93856
2017-08-22T12:44:21.156Z,98848
2017-08-22T12:45:22.560Z,107296
2017-08-22T12:46:24.030Z,104832
2017-08-22T12:47:25.432Z,77376
2017-08-22T12:48:26.896Z,95744
2017-08-22T12:49:28.329Z,66240
2017-08-22T12:50:29.788Z,41280
2017-08-22T12:51:31.195Z,47360
2017-08-22T12:52:32.659Z,99776
2017-08-22T12:53:34.054Z,109888
2017-08-22T12:54:35.543Z,77664
2017-08-22T12:55:36.944Z,102592
2017-08-22T12:56:38.424Z,44864
2017-08-22T12:57:39.837Z,106944
2017-08-22T12:58:41.316Z,106976
2017-08-22T12:59:42.712Z,109376
2017-08-22T13:00:44.194Z,109856
2017-08-22T13:01:45.586Z,108512
2017-08-22T13:02:47.084Z,109056
2017-08-22T13:03:48.478Z,104672
2017-08-22T13:04:49.950Z,103360
2017-08-22T13:05:51.350Z,52896
2017-08-22T13:06:52.942Z,95648
2017-08-22T13:07:54.334Z,44800
2017-08-22T13:08:55.809Z,38144
2017-08-22T13:09:57.207Z,34592
2017-08-22T13:10:58.673Z,34976
2017-08-22T13:12:00.079Z,33568
2017-08-22T13:13:01.567Z,28864
2017-08-22T13:14:02.956Z,26496
2017-08-22T13:15:04.453Z,25088
2017-08-22T13:16:05.854Z,24224
2017-08-22T13:17:07.318Z,24256
2017-08-22T13:18:08.709Z,24544
2017-08-22T13:19:10.192Z,24832
2017-08-22T13:20:11.588Z,27488
2017-08-22T13:21:13.078Z,34400
2017-08-22T13:22:14.480Z,49952
2017-08-22T13:23:15.946Z,53696
2017-08-22T13:24:17.345Z,56064
2017-08-22T13:25:18.837Z,67264
2017-08-22T13:26:20.231Z,76800
2017-08-22T13:27:21.705Z,80992
2017-08-22T13:28:23.095Z,74688
2017-08-22T13:29:24.503Z,81536
2017-08-22T13:30:25.896Z,78048
2017-08-22T13:31:27.290Z,82176
2017-08-22T13:32:28.683Z,78944
2017-08-22T13:33:30.356Z,80416
2017-08-22T13:34:31.751Z,80352
2017-08-22T13:35:33.236Z,75552
2017-08-22T13:36:34.633Z,72960
2017-08-22T13:37:36.126Z,52544
2017-08-22T13:38:37.563Z,63520
2017-08-22T13:39:38.996Z,70432
2017-08-22T13:40:40.391Z,70272
2017-08-22T13:41:41.877Z,74240
2017-08-22T13:42:43.280Z,72096
2017-08-22T13:43:44.757Z,65632
2017-08-22T13:44:46.150Z,51968
2017-08-22T13:45:47.678Z,24032
2017-08-22T13:46:49.078Z,34176
2017-08-22T13:47:50.546Z,41024